Terminal Aerodrome Forecast
Issued by NWS

Home | Current Version | Previous Version | Text Only | Print | Product List | Glossary On
Versions: 1 2 3 4 5 6 7 8 9 10 11 12 13 14 15 16 17 18 19 20 21 22 23 24
000
FTUS45 KLKN 290520
TAFTPH
TAF
KTPH 290520Z 2906/3006 19008KT P6SM SCT200
     FM291800 18020G35KT P6SM SCT200
     FM300400 34010KT P6SM SCT200=

USA.gov is the U.S. government's official web portal to all federal, state and local government web resources and services.